Time;durP1;ratioP1;P1;durP2;ratioP2;P2;SDS_P1;SDS_P2;PMS_P1;PMS_P2;Temp;Humidity;BMP_temperature;BMP_pressure;BME280_temperature;BME280_humidity;BME280_pressure;Samples;Min_cycle;Max_cycle;Signal;HPM_P1;HPM_P2
2024/02/12 00:01:45;;;;;;;2.40;1.02;;;8.30;99.90;;;;;;5001280;28;20074;-91
2024/02/12 00:04:12;;;;;;;2.55;1.27;;;8.40;99.90;;;;;;5009641;28;20030;-93
2024/02/12 00:06:38;;;;;;;5.30;1.98;;;8.40;99.90;;;;;;5009935;28;20018;-93
2024/02/12 00:09:04;;;;;;;2.45;0.93;;;8.30;99.90;;;;;;5006216;28;20113;-92
2024/02/12 00:11:30;;;;;;;3.00;1.30;;;8.40;99.90;;;;;;5007192;28;20057;-93
2024/02/12 00:13:56;;;;;;;2.17;1.67;;;8.40;99.90;;;;;;5001785;28;20030;-94
2024/02/12 00:16:22;;;;;;;2.25;1.40;;;8.40;99.90;;;;;;5000328;28;20054;-92
2024/02/12 00:18:49;;;;;;;3.45;1.20;;;8.40;99.90;;;;;;4999567;28;20010;-94
2024/02/12 00:21:15;;;;;;;2.45;2.25;;;8.30;99.90;;;;;;4991055;28;20041;-92
2024/02/12 00:23:43;;;;;;;1.70;1.60;;;8.30;99.90;;;;;;4992091;28;20026;-92
2024/02/12 00:26:09;;;;;;;2.33;1.42;;;8.40;99.90;;;;;;5009931;28;20026;-92
2024/02/12 00:28:35;;;;;;;3.63;1.33;;;8.30;99.90;;;;;;4985558;28;20030;-93
2024/02/12 00:31:01;;;;;;;1.38;0.90;;;8.30;99.90;;;;;;5004101;28;20022;-93
2024/02/12 00:33:28;;;;;;;2.22;1.55;;;8.40;99.90;;;;;;5002099;28;20019;-93
2024/02/12 00:35:54;;;;;;;2.10;1.23;;;8.30;99.90;;;;;;5004840;28;20091;-93
2024/02/12 00:38:20;;;;;;;1.52;1.30;;;8.30;99.90;;;;;;5008499;28;20430;-93
2024/02/12 00:40:45;;;;;;;2.15;1.10;;;8.30;99.90;;;;;;5008750;28;20034;-92
2024/02/12 00:43:11;;;;;;;3.15;1.25;;;8.30;99.90;;;;;;4999631;28;20034;-94
2024/02/12 00:45:40;;;;;;;3.88;1.63;;;8.30;99.90;;;;;;4983058;28;20030;-94
2024/02/12 00:48:05;;;;;;;2.05;1.38;;;8.30;99.90;;;;;;5000740;28;20030;-93
2024/02/12 00:50:34;;;;;;;2.28;1.63;;;8.40;99.90;;;;;;5001032;28;20050;-93
2024/02/12 00:53:01;;;;;;;2.00;1.50;;;8.30;99.90;;;;;;5000777;28;20045;-95
2024/02/12 00:55:26;;;;;;;2.15;1.50;;;8.40;99.90;;;;;;4999508;28;20026;-92
2024/02/12 00:57:52;;;;;;;2.47;1.77;;;8.40;99.90;;;;;;5000169;28;20026;-94
2024/02/12 01:00:20;;;;;;;2.28;1.10;;;8.40;99.90;;;;;;4999791;28;20026;-94
2024/02/12 01:02:46;;;;;;;2.50;2.15;;;8.40;99.90;;;;;;5000775;28;20030;-93
2024/02/12 01:05:13;;;;;;;4.68;1.85;;;8.40;99.90;;;;;;5000964;28;20027;-94
2024/02/12 01:07:40;;;;;;;2.67;1.35;;;8.40;99.90;;;;;;4991317;28;20082;-94
2024/02/12 01:10:07;;;;;;;2.33;1.13;;;8.40;99.90;;;;;;4997520;28;20382;-92
2024/02/12 01:12:34;;;;;;;3.00;1.80;;;8.40;99.90;;;;;;5009334;28;20062;-93
2024/02/12 01:15:00;;;;;;;3.47;2.03;;;8.40;99.90;;;;;;5012908;28;20045;-93
2024/02/12 01:17:27;;;;;;;1.77;1.52;;;8.40;99.90;;;;;;4997941;28;20110;-93
2024/02/12 01:19:53;;;;;;;1.60;1.50;;;8.40;99.90;;;;;;5008913;28;20045;-92
2024/02/12 01:22:19;;;;;;;1.33;1.13;;;8.40;99.90;;;;;;4981258;28;20019;-93
2024/02/12 01:24:46;;;;;;;2.00;1.10;;;8.30;99.90;;;;;;4984229;28;20037;-93
2024/02/12 01:27:12;;;;;;;4.47;1.77;;;8.30;99.90;;;;;;5007247;28;20022;-96
2024/02/12 01:29:40;;;;;;;2.67;1.80;;;8.40;99.90;;;;;;4990842;28;20026;-95
2024/02/12 01:32:07;;;;;;;2.28;1.42;;;8.30;99.90;;;;;;5005999;28;20033;-95
2024/02/12 01:34:34;;;;;;;2.97;1.70;;;8.30;99.90;;;;;;5026670;28;20023;-93
2024/02/12 01:37:00;;;;;;;1.88;0.95;;;8.20;99.90;;;;;;5014875;28;20014;-95
2024/02/12 01:39:26;;;;;;;3.08;1.20;;;8.20;99.90;;;;;;5010162;28;20175;-95
2024/02/12 01:41:52;;;;;;;1.70;1.35;;;8.20;99.90;;;;;;5010919;28;20057;-93
2024/02/12 01:44:18;;;;;;;3.58;1.98;;;8.20;99.90;;;;;;5007000;28;20137;-95
2024/02/12 01:46:48;;;;;;;3.33;1.27;;;8.20;99.90;;;;;;5002803;28;20029;-94
2024/02/12 01:49:17;;;;;;;2.28;1.90;;;8.20;99.90;;;;;;4989341;28;20042;-92
2024/02/12 01:51:44;;;;;;;3.63;2.03;;;8.20;99.90;;;;;;4998166;28;20038;-91
2024/02/12 01:54:14;;;;;;;3.67;1.35;;;8.20;99.90;;;;;;5007759;28;20077;-95
2024/02/12 01:56:39;;;;;;;2.22;1.13;;;8.20;99.90;;;;;;4987852;28;20405;-94
2024/02/12 01:59:08;;;;;;;1.50;0.98;;;8.10;99.90;;;;;;4998999;28;20023;-94
2024/02/12 02:01:34;;;;;;;1.77;1.15;;;8.10;99.90;;;;;;4989716;28;20034;-93
2024/02/12 02:04:01;;;;;;;3.60;1.25;;;8.00;99.90;;;;;;4999529;28;20033;-92
2024/02/12 02:06:28;;;;;;;3.22;0.98;;;8.00;99.90;;;;;;5004799;28;20365;-93
2024/02/12 02:08:54;;;;;;;2.95;1.05;;;8.00;99.90;;;;;;5000558;28;20026;-95
2024/02/12 02:11:20;;;;;;;1.85;1.13;;;8.00;99.90;;;;;;5006468;28;20092;-93
2024/02/12 02:13:47;;;;;;;2.15;1.17;;;8.00;99.90;;;;;;4997983;28;20026;-93
2024/02/12 02:16:15;;;;;;;2.92;1.67;;;7.90;99.90;;;;;;5005903;28;20022;-93
2024/02/12 02:18:50;;;;;;;1.33;1.05;;;7.90;99.90;;;;;;5000789;28;20030;-94
2024/02/12 02:21:17;;;;;;;4.40;1.92;;;7.90;99.90;;;;;;4980532;28;20026;-95
2024/02/12 02:23:42;;;;;;;4.18;1.08;;;7.90;99.90;;;;;;5007190;28;20029;-95
2024/02/12 02:26:08;;;;;;;4.55;1.85;;;7.90;99.90;;;;;;4999001;28;20030;-95
2024/02/12 02:28:34;;;;;;;3.50;1.90;;;7.90;99.90;;;;;;4998113;28;20030;-92
2024/02/12 02:31:00;;;;;;;3.00;1.50;;;7.90;99.90;;;;;;5012467;28;20060;-95
2024/02/12 02:33:25;;;;;;;3.78;1.75;;;7.80;99.90;;;;;;4997613;28;20026;-94
2024/02/12 02:35:52;;;;;;;4.28;2.67;;;7.90;99.90;;;;;;4995853;28;20022;-93
2024/02/12 02:38:18;;;;;;;6.07;1.77;;;7.90;99.90;;;;;;5001085;28;20023;-93
2024/02/12 02:40:43;;;;;;;4.22;1.92;;;8.00;99.90;;;;;;4979890;28;20026;-92
2024/02/12 02:43:09;;;;;;;1.45;1.35;;;8.00;99.90;;;;;;5006609;28;20030;-94
2024/02/12 02:45:36;;;;;;;2.55;1.60;;;7.90;99.90;;;;;;5007187;28;20112;-94
2024/02/12 02:48:02;;;;;;;5.20;1.48;;;8.00;99.90;;;;;;4998472;28;20037;-94
2024/02/12 02:50:29;;;;;;;5.95;1.38;;;7.90;99.90;;;;;;5014857;28;20366;-92
2024/02/12 02:52:59;;;;;;;3.38;2.03;;;7.90;99.90;;;;;;5003315;28;20532;-93
2024/02/12 02:55:28;;;;;;;3.05;1.40;;;7.90;99.90;;;;;;5007455;28;20019;-95
2024/02/12 02:58:01;;;;;;;2.55;1.77;;;7.90;99.90;;;;;;4997431;28;20029;-93
2024/02/12 03:00:30;;;;;;;3.42;1.38;;;8.00;99.90;;;;;;4996783;28;20031;-92
2024/02/12 03:02:57;;;;;;;4.50;1.95;;;7.90;99.90;;;;;;4997371;28;20023;-93
2024/02/12 03:05:24;;;;;;;2.90;2.28;;;7.90;99.90;;;;;;4981670;28;20081;-95
2024/02/12 03:07:50;;;;;;;5.25;1.85;;;8.00;99.90;;;;;;5009419;28;20029;-95
2024/02/12 03:10:16;;;;;;;5.75;1.48;;;7.90;99.90;;;;;;5000731;28;20105;-94
2024/02/12 03:12:43;;;;;;;2.85;1.77;;;8.00;99.90;;;;;;4997754;28;20121;-94
2024/02/12 03:15:11;;;;;;;2.30;1.30;;;7.90;99.90;;;;;;4999325;28;20026;-93
2024/02/12 03:17:43;;;;;;;4.47;2.35;;;8.00;99.90;;;;;;4997833;28;20039;-93
2024/02/12 03:20:12;;;;;;;4.47;1.83;;;8.00;99.90;;;;;;4979869;28;20018;-94
2024/02/12 03:22:41;;;;;;;4.72;1.08;;;8.00;99.90;;;;;;5006248;28;20513;-94
2024/02/12 03:25:11;;;;;;;5.13;1.90;;;7.90;99.90;;;;;;4996572;28;20477;-94
2024/02/12 03:27:37;;;;;;;6.35;2.67;;;7.90;99.90;;;;;;5007867;28;20018;-94
2024/02/12 03:30:05;;;;;;;4.13;1.92;;;7.90;99.90;;;;;;5009865;28;20030;-93
2024/02/12 03:32:31;;;;;;;6.38;2.35;;;7.90;99.90;;;;;;5010038;28;20481;-94
2024/02/12 03:34:57;;;;;;;3.78;2.92;;;7.90;99.90;;;;;;5002525;28;20038;-93
2024/02/12 03:37:24;;;;;;;2.92;2.15;;;7.90;99.90;;;;;;5017316;28;20030;-96
2024/02/12 03:39:52;;;;;;;4.50;2.13;;;7.90;99.90;;;;;;5024465;28;20025;-96
2024/02/12 03:42:19;;;;;;;3.17;1.85;;;7.90;99.90;;;;;;5029982;28;20018;-95
2024/02/12 03:44:45;;;;;;;11.23;2.35;;;8.00;99.90;;;;;;4994758;28;20129;-94
2024/02/12 03:47:10;;;;;;;4.75;1.63;;;8.00;99.90;;;;;;5018205;28;20509;-94
2024/02/12 04:00:37;;;;;;;4.60;2.20;;;8.00;99.90;;;;;;5002282;28;20088;-93
2024/02/12 04:03:08;;;;;;;6.07;2.42;;;8.00;99.90;;;;;;5003945;28;20038;-93
2024/02/12 04:05:34;;;;;;;6.50;3.05;;;8.00;99.90;;;;;;4983404;28;20226;-94
2024/02/12 04:08:00;;;;;;;4.93;2.10;;;8.00;99.90;;;;;;5007105;28;20030;-94
2024/02/12 04:10:26;;;;;;;6.43;3.25;;;8.00;99.90;;;;;;5016092;28;20317;-93
2024/02/12 04:12:51;;;;;;;4.00;1.95;;;8.00;99.90;;;;;;5008592;28;20030;-94
2024/02/12 04:15:17;;;;;;;4.80;1.58;;;8.00;99.90;;;;;;5009081;28;20084;-94
2024/02/12 04:17:43;;;;;;;3.97;2.25;;;8.00;99.90;;;;;;5007626;28;20026;-94
2024/02/12 04:20:10;;;;;;;6.85;3.00;;;8.00;99.90;;;;;;5010668;28;20064;-93
2024/02/12 04:22:39;;;;;;;4.22;2.03;;;8.00;99.90;;;;;;5002670;28;20026;-93
2024/02/12 04:25:05;;;;;;;6.72;3.15;;;8.00;99.90;;;;;;5008214;28;20103;-92
2024/02/12 04:27:33;;;;;;;4.15;2.60;;;7.90;99.90;;;;;;5009633;28;20026;-92
2024/02/12 04:29:59;;;;;;;4.10;1.98;;;7.90;99.90;;;;;;4983722;28;20014;-93
2024/02/12 04:32:25;;;;;;;3.75;2.30;;;7.90;99.90;;;;;;5002263;28;20026;-92
2024/02/12 04:34:51;;;;;;;5.20;2.97;;;7.90;99.90;;;;;;5005101;28;20022;-93
2024/02/12 04:37:18;;;;;;;4.80;1.88;;;7.90;99.90;;;;;;5000539;28;20085;-94
2024/02/12 04:39:43;;;;;;;6.07;2.80;;;7.80;99.90;;;;;;4999540;28;20034;-94
2024/02/12 04:42:09;;;;;;;3.60;1.88;;;7.90;99.90;;;;;;5000250;28;20041;-92
2024/02/12 04:44:35;;;;;;;5.40;2.85;;;7.90;99.90;;;;;;5008826;28;20038;-95
2024/02/12 04:47:04;;;;;;;4.55;2.25;;;7.80;99.90;;;;;;4984133;28;20022;-93
2024/02/12 04:49:29;;;;;;;6.75;2.80;;;7.80;99.90;;;;;;5001484;28;20023;-94
2024/02/12 04:51:55;;;;;;;4.90;2.55;;;7.80;99.90;;;;;;5007918;28;20037;-94
2024/02/12 04:54:23;;;;;;;5.72;2.75;;;7.80;99.90;;;;;;5000124;28;20097;-95
2024/02/12 04:56:49;;;;;;;4.90;3.10;;;7.80;99.90;;;;;;4995365;28;20019;-93
2024/02/12 04:59:16;;;;;;;8.13;3.45;;;7.70;99.90;;;;;;4994812;28;20030;-94
2024/02/12 05:01:42;;;;;;;5.47;2.35;;;7.70;99.90;;;;;;4989783;28;20065;-94
2024/02/12 05:04:07;;;;;;;8.15;3.38;;;7.70;99.90;;;;;;4982318;28;20030;-93
2024/02/12 05:06:33;;;;;;;8.50;3.42;;;7.70;99.90;;;;;;5011203;28;20073;-94
2024/02/12 05:09:06;;;;;;;7.88;3.65;;;7.70;99.90;;;;;;5008077;28;20030;-93
2024/02/12 05:11:33;;;;;;;5.78;2.90;;;7.70;99.90;;;;;;4988972;28;20030;-93
2024/02/12 05:13:59;;;;;;;7.75;2.53;;;7.70;99.90;;;;;;4998606;28;20330;-93
2024/02/12 05:16:33;;;;;;;6.63;3.08;;;7.60;99.90;;;;;;4991098;28;20070;-92
2024/02/12 05:24:29;;;;;;;6.55;4.38;;;7.40;99.90;;;;;;5001292;28;20073;-92
2024/02/12 05:26:57;;;;;;;9.02;4.25;;;7.40;99.90;;;;;;4999391;28;20471;-94
2024/02/12 05:29:23;;;;;;;5.63;2.65;;;7.30;99.90;;;;;;4994141;28;20023;-93
2024/02/12 05:31:50;;;;;;;7.05;4.10;;;7.20;99.90;;;;;;4999568;28;20038;-93
2024/02/12 05:34:17;;;;;;;7.80;3.65;;;7.20;99.90;;;;;;4999148;28;20015;-94
2024/02/12 05:36:43;;;;;;;8.38;3.85;;;7.20;99.90;;;;;;4998811;28;20409;-94
2024/02/12 05:39:12;;;;;;;5.82;3.08;;;7.20;99.90;;;;;;4993770;28;20019;-92
2024/02/12 05:41:39;;;;;;;6.65;3.63;;;7.20;99.90;;;;;;4980216;28;20035;-91
2024/02/12 05:44:04;;;;;;;7.97;3.78;;;7.10;99.90;;;;;;4988689;28;20027;-93
2024/02/12 05:46:30;;;;;;;12.27;5.53;;;7.10;99.90;;;;;;4982340;28;20041;-93
2024/02/12 05:48:58;;;;;;;9.45;4.40;;;7.10;99.90;;;;;;5004743;28;20026;-94
2024/02/12 05:51:23;;;;;;;;;;;7.10;99.90;;;;;;4995408;28;20442;-93
2024/02/12 05:53:50;;;;;;;7.28;3.45;;;7.10;99.90;;;;;;4999129;28;19944;-92
2024/02/12 05:56:16;;;;;;;8.63;3.75;;;7.10;99.90;;;;;;4999503;28;20052;-94
2024/02/12 05:58:42;;;;;;;5.93;3.28;;;7.10;99.90;;;;;;5008201;28;20143;-93
2024/02/12 06:01:07;;;;;;;6.97;4.13;;;7.10;99.90;;;;;;4999811;28;20034;-91
2024/02/12 06:03:33;;;;;;;7.10;4.82;;;7.10;99.90;;;;;;5008967;28;20035;-94
2024/02/12 06:06:00;;;;;;;6.47;4.22;;;7.00;99.90;;;;;;5006024;28;20312;-94
2024/02/12 06:08:26;;;;;;;9.70;4.78;;;7.00;99.90;;;;;;5008833;28;20041;-94
2024/02/12 06:10:52;;;;;;;8.75;3.60;;;7.00;99.90;;;;;;4991268;28;20394;-93
2024/02/12 06:13:17;;;;;;;5.65;3.17;;;7.00;99.90;;;;;;4982919;28;20023;-93
2024/02/12 06:15:43;;;;;;;6.53;3.92;;;7.00;99.90;;;;;;5007137;28;20026;-95
2024/02/12 06:18:09;;;;;;;6.63;3.90;;;6.90;99.90;;;;;;5000248;28;20029;-92
2024/02/12 06:20:35;;;;;;;6.93;3.55;;;6.90;99.90;;;;;;5008090;28;20489;-94
2024/02/12 06:23:01;;;;;;;7.47;3.58;;;6.90;99.90;;;;;;5001624;28;20030;-92
2024/02/12 06:25:27;;;;;;;4.80;3.05;;;6.90;99.90;;;;;;5000930;28;20101;-94
2024/02/12 06:27:52;;;;;;;5.53;3.22;;;6.90;99.90;;;;;;5005402;28;20052;-93
2024/02/12 06:30:19;;;;;;;7.32;4.03;;;6.90;99.90;;;;;;4987968;28;20066;-92
2024/02/12 06:32:45;;;;;;;7.63;4.05;;;6.90;99.90;;;;;;5009306;28;20042;-93
2024/02/12 06:35:11;;;;;;;5.10;2.83;;;6.90;99.90;;;;;;4990889;28;20102;-94
2024/02/12 06:37:38;;;;;;;8.35;3.58;;;7.00;99.90;;;;;;4980517;28;20030;-93
2024/02/12 06:40:06;;;;;;;10.10;3.70;;;7.00;99.90;;;;;;4980855;28;20026;-92
2024/02/12 06:42:32;;;;;;;9.23;3.60;;;7.00;99.90;;;;;;4984566;28;20090;-93
2024/02/12 06:44:58;;;;;;;7.75;3.17;;;7.00;99.90;;;;;;4984217;28;20065;-94
2024/02/12 06:47:23;;;;;;;9.43;5.28;;;7.00;99.90;;;;;;4984958;28;20042;-95
2024/02/12 06:49:49;;;;;;;7.25;2.95;;;7.00;99.90;;;;;;4983550;28;20030;-92
2024/02/12 06:52:14;;;;;;;6.38;2.95;;;7.00;99.90;;;;;;4988672;28;20088;-91
2024/02/12 06:54:40;;;;;;;5.65;2.75;;;7.00;99.90;;;;;;4988955;28;20474;-95
2024/02/12 06:57:06;;;;;;;8.55;3.50;;;7.00;99.90;;;;;;4999156;28;20397;-92
2024/02/12 06:59:31;;;;;;;7.65;4.40;;;7.10;99.90;;;;;;4984467;28;20090;-91
2024/02/12 07:01:57;;;;;;;11.05;4.20;;;7.10;99.90;;;;;;4987892;28;20030;-95
2024/02/12 07:04:23;;;;;;;7.35;3.42;;;7.10;99.90;;;;;;4981441;28;20050;-92
2024/02/12 07:06:49;;;;;;;7.30;3.95;;;7.10;99.90;;;;;;4989938;28;20049;-95
2024/02/12 07:09:15;;;;;;;6.40;3.97;;;7.20;99.90;;;;;;4999511;28;20023;-93
2024/02/12 07:11:40;;;;;;;5.32;2.53;;;7.10;99.90;;;;;;4968762;28;20030;-93
2024/02/12 07:14:06;;;;;;;4.38;3.05;;;7.10;99.90;;;;;;4981036;28;20702;-93
2024/02/12 07:16:32;;;;;;;6.18;3.53;;;7.10;99.90;;;;;;4986148;28;20026;-95
2024/02/12 07:18:57;;;;;;;6.18;4.00;;;7.10;99.90;;;;;;4992686;28;20018;-93
2024/02/12 07:21:23;;;;;;;5.22;2.92;;;7.20;99.90;;;;;;4988279;28;20036;-92
2024/02/12 07:23:49;;;;;;;6.75;2.30;;;7.20;99.90;;;;;;4998344;28;20817;-93
2024/02/12 07:26:15;;;;;;;5.35;3.22;;;7.20;99.90;;;;;;4968248;28;20120;-93
2024/02/12 07:28:41;;;;;;;8.75;3.65;;;7.20;99.90;;;;;;5001588;28;20034;-94
2024/02/12 07:31:10;;;;;;;8.02;2.70;;;7.20;99.90;;;;;;5005905;28;20030;-91
2024/02/12 07:33:36;;;;;;;7.03;3.30;;;7.20;99.90;;;;;;5004867;28;20064;-92
2024/02/12 07:36:03;;;;;;;5.05;2.92;;;7.30;99.90;;;;;;5016504;28;20144;-92
2024/02/12 07:38:29;;;;;;;16.95;3.45;;;7.30;99.90;;;;;;5013595;28;20162;-90
2024/02/12 07:40:56;;;;;;;6.55;3.45;;;7.30;99.90;;;;;;5006456;28;20477;-93
2024/02/12 07:43:24;;;;;;;5.68;2.67;;;7.40;99.90;;;;;;5002894;28;20025;-92
2024/02/12 07:45:50;;;;;;;7.70;3.47;;;7.40;99.90;;;;;;5008245;28;20124;-93
2024/02/12 07:48:16;;;;;;;7.88;4.45;;;7.40;99.90;;;;;;5003870;28;20485;-92
2024/02/12 07:50:42;;;;;;;6.55;3.20;;;7.40;99.90;;;;;;4999580;28;20106;-92
2024/02/12 07:53:10;;;;;;;9.55;3.75;;;7.40;99.90;;;;;;5000140;28;20014;-92
2024/02/12 07:55:36;;;;;;;6.32;3.80;;;7.40;99.90;;;;;;5002275;28;20122;-93
2024/02/12 07:58:01;;;;;;;6.75;2.88;;;7.40;99.90;;;;;;5015685;28;20068;-92
2024/02/12 08:00:27;;;;;;;5.43;3.33;;;7.40;99.90;;;;;;5001673;28;20030;-92
2024/02/12 08:02:53;;;;;;;5.13;3.88;;;7.40;99.90;;;;;;4969978;28;20114;-93
2024/02/12 08:05:20;;;;;;;4.95;3.33;;;7.40;99.90;;;;;;4997438;28;20113;-93
2024/02/12 08:07:45;;;;;;;6.90;3.65;;;7.40;99.90;;;;;;5002797;28;20488;-93
2024/02/12 08:10:12;;;;;;;7.75;3.50;;;7.40;99.90;;;;;;5010298;28;20036;-93
2024/02/12 08:12:37;;;;;;;6.43;3.97;;;7.50;99.90;;;;;;5003601;28;20026;-93
2024/02/12 08:15:04;;;;;;;4.57;2.67;;;7.50;99.90;;;;;;5010198;28;20026;-92
2024/02/12 08:17:30;;;;;;;8.27;4.65;;;7.50;99.90;;;;;;5010370;28;20030;-92
2024/02/12 08:19:56;;;;;;;6.80;3.55;;;7.50;99.90;;;;;;5010223;28;20057;-92
2024/02/12 08:22:22;;;;;;;5.63;3.30;;;7.60;99.90;;;;;;5003516;28;20027;-93
2024/02/12 08:24:48;;;;;;;7.97;2.97;;;7.60;99.90;;;;;;4986385;28;20086;-92
2024/02/12 08:27:14;;;;;;;6.50;3.85;;;7.60;99.90;;;;;;5001093;28;20026;-92
2024/02/12 08:29:40;;;;;;;6.20;3.42;;;7.60;99.90;;;;;;5021309;28;20528;-91
2024/02/12 08:32:06;;;;;;;5.03;3.05;;;7.60;99.90;;;;;;5003274;28;20023;-94
2024/02/12 08:34:32;;;;;;;5.07;2.72;;;7.70;99.90;;;;;;4992745;28;20026;-91
2024/02/12 08:36:58;;;;;;;9.10;3.35;;;7.70;99.90;;;;;;4993746;28;20018;-93
2024/02/12 08:39:24;;;;;;;7.45;3.30;;;7.80;99.90;;;;;;4985511;28;20029;-92
2024/02/12 08:41:50;;;;;;;9.95;3.00;;;7.80;99.90;;;;;;5009929;28;20049;-92
2024/02/12 08:44:16;;;;;;;6.38;3.08;;;7.80;99.90;;;;;;5002256;28;20027;-94
2024/02/12 08:46:44;;;;;;;6.40;2.90;;;7.80;99.90;;;;;;4990365;28;20110;-91
2024/02/12 08:49:10;;;;;;;7.50;4.07;;;7.80;99.90;;;;;;5006352;28;20105;-91
2024/02/12 08:51:36;;;;;;;7.47;3.58;;;7.80;99.90;;;;;;5003944;28;20111;-95
2024/02/12 08:54:02;;;;;;;6.07;2.90;;;7.90;99.90;;;;;;5014077;28;20026;-92
2024/02/12 08:56:28;;;;;;;7.18;4.05;;;7.80;99.90;;;;;;5002473;28;20019;-92
2024/02/12 08:58:57;;;;;;;6.28;3.28;;;7.80;99.90;;;;;;5002931;28;20026;-92
2024/02/12 09:01:23;;;;;;;9.18;3.88;;;7.80;99.90;;;;;;4998860;28;20030;-92
2024/02/12 09:03:48;;;;;;;5.70;3.03;;;7.80;99.90;;;;;;4989237;28;20094;-94
2024/02/12 09:06:16;;;;;;;4.82;2.92;;;7.70;99.90;;;;;;5005394;28;20086;-93
2024/02/12 09:08:43;;;;;;;7.97;4.15;;;7.80;99.90;;;;;;5001117;28;20027;-94
2024/02/12 09:11:09;;;;;;;9.45;3.30;;;7.80;99.90;;;;;;5001083;28;20031;-92
2024/02/12 09:13:36;;;;;;;9.90;4.00;;;7.80;99.90;;;;;;5003301;28;20042;-93
2024/02/12 09:16:02;;;;;;;8.05;4.07;;;7.80;99.90;;;;;;5003981;28;20624;-93
2024/02/12 09:18:28;;;;;;;7.50;3.08;;;7.90;99.90;;;;;;5014904;28;20086;-93
2024/02/12 09:21:00;;;;;;;6.68;2.95;;;7.90;99.90;;;;;;5002469;28;20069;-94
2024/02/12 09:23:25;;;;;;;6.57;3.72;;;8.00;99.90;;;;;;5006586;28;20717;-93
2024/02/12 09:25:51;;;;;;;9.52;3.22;;;8.00;99.90;;;;;;4993233;28;20560;-92
2024/02/12 09:28:18;;;;;;;5.20;2.90;;;7.90;99.90;;;;;;5015229;28;20025;-92
2024/02/12 09:30:50;;;;;;;5.53;2.53;;;8.00;99.90;;;;;;4985118;28;20352;-92
2024/02/12 09:33:16;;;;;;;8.13;3.38;;;8.00;99.90;;;;;;4987105;28;20026;-93
2024/02/12 09:35:44;;;;;;;9.30;3.25;;;8.00;99.90;;;;;;5000624;28;20027;-92
2024/02/12 09:38:10;;;;;;;;;;;8.00;99.90;;;;;;5001318;28;20048;-92
2024/02/12 09:40:36;;;;;;;6.35;3.08;;;8.10;99.90;;;;;;4997017;28;20450;-93
2024/02/12 09:43:02;;;;;;;9.15;3.25;;;8.00;99.90;;;;;;5013486;28;20014;-91
2024/02/12 09:45:29;;;;;;;5.75;3.65;;;8.10;99.90;;;;;;5003393;28;20030;-94
2024/02/12 09:47:55;;;;;;;9.60;4.65;;;8.00;99.90;;;;;;4984018;28;20038;-93
2024/02/12 09:50:27;;;;;;;7.03;3.55;;;8.10;99.90;;;;;;4999960;28;20033;-94
2024/02/12 09:52:56;;;;;;;7.82;4.50;;;8.00;99.90;;;;;;5000098;28;20027;-92
2024/02/12 09:55:23;;;;;;;6.85;4.20;;;8.10;99.90;;;;;;4999539;28;20030;-94
2024/02/12 09:57:51;;;;;;;6.05;3.50;;;8.10;99.90;;;;;;5007077;28;20022;-93
2024/02/12 10:00:19;;;;;;;7.10;3.15;;;8.30;99.90;;;;;;5000750;28;20014;-92
2024/02/12 10:02:46;;;;;;;5.50;3.00;;;8.30;99.90;;;;;;4999661;28;20049;-93
2024/02/12 10:05:20;;;;;;;5.85;3.50;;;8.40;99.90;;;;;;5008774;28;20038;-94
2024/02/12 10:07:46;;;;;;;;;;;8.40;99.90;;;;;;4993998;28;20057;-93
2024/02/12 10:10:13;;;;;;;4.60;2.30;;;8.50;99.90;;;;;;4974844;28;19941;-93
2024/02/12 10:12:39;;;;;;;4.47;3.42;;;8.50;99.90;;;;;;4999983;28;20026;-94
2024/02/12 10:15:05;;;;;;;4.43;1.88;;;8.40;99.90;;;;;;4999703;28;20085;-93
2024/02/12 10:17:31;;;;;;;5.32;2.90;;;8.50;99.90;;;;;;5000353;28;20022;-91
2024/02/12 10:19:57;;;;;;;6.10;3.05;;;8.60;99.90;;;;;;5002240;28;20425;-91
2024/02/12 10:22:23;;;;;;;6.15;2.72;;;8.70;99.70;;;;;;5000469;28;20548;-93
2024/02/12 10:24:49;;;;;;;5.32;2.88;;;8.80;97.60;;;;;;4997755;28;20037;-93
2024/02/12 10:27:20;;;;;;;6.05;1.52;;;8.90;98.10;;;;;;4992228;28;20030;-92
2024/02/12 10:29:58;;;;;;;5.05;2.45;;;9.10;94.70;;;;;;4982305;28;20034;-93
2024/02/12 10:32:25;;;;;;;5.45;2.35;;;9.30;96.20;;;;;;4990987;28;20033;-93
2024/02/12 10:34:53;;;;;;;5.45;1.88;;;9.60;93.50;;;;;;4978247;28;20133;-94
2024/02/12 10:37:24;;;;;;;5.50;2.30;;;9.50;93.70;;;;;;5009775;28;20045;-93
2024/02/12 10:39:51;;;;;;;7.43;2.00;;;9.50;96.50;;;;;;5004104;28;20022;-92
2024/02/12 10:42:25;;;;;;;4.70;2.08;;;9.60;95.80;;;;;;5001376;28;20033;-93
2024/02/12 10:44:54;;;;;;;5.22;2.92;;;9.50;94.40;;;;;;4985583;28;20027;-93
2024/02/12 10:47:21;;;;;;;5.95;2.08;;;9.40;93.60;;;;;;5004076;28;20023;-92
2024/02/12 10:49:50;;;;;;;3.75;1.45;;;9.40;93.30;;;;;;5005417;28;20133;-93
2024/02/12 10:52:17;;;;;;;4.32;1.88;;;9.50;92.90;;;;;;4985977;28;20121;-94
2024/02/12 10:54:44;;;;;;;4.25;1.92;;;9.50;92.30;;;;;;5020476;28;20030;-93
2024/02/12 10:57:12;;;;;;;4.50;2.03;;;9.50;91.50;;;;;;4979298;28;20031;-93
2024/02/12 10:59:38;;;;;;;3.25;1.55;;;9.70;90.00;;;;;;4989235;28;20058;-92
2024/02/12 11:02:13;;;;;;;3.35;1.40;;;9.70;88.70;;;;;;4986845;28;20030;-92
2024/02/12 11:04:43;;;;;;;4.80;2.58;;;9.60;87.60;;;;;;4988237;28;20035;-92
2024/02/12 11:07:18;;;;;;;5.15;1.30;;;9.60;88.70;;;;;;5005639;28;20026;-92
2024/02/12 11:09:56;;;;;;;3.25;1.85;;;9.50;86.70;;;;;;4997976;28;20046;-92
2024/02/12 11:12:22;;;;;;;4.03;1.88;;;9.50;87.80;;;;;;5012065;28;20027;-94
2024/02/12 11:14:51;;;;;;;3.38;1.83;;;9.70;88.70;;;;;;5003882;28;20488;-92
2024/02/12 11:17:22;;;;;;;3.78;1.63;;;9.80;87.00;;;;;;5002023;28;20027;-92
2024/02/12 11:19:49;;;;;;;3.90;1.52;;;9.70;86.60;;;;;;4984109;28;20397;-93
2024/02/12 11:22:28;;;;;;;4.90;2.22;;;9.80;86.20;;;;;;4982772;28;20034;-92
2024/02/12 11:24:59;;;;;;;2.70;1.58;;;9.80;85.60;;;;;;5008474;28;20096;-93
2024/02/12 11:28:03;;;;;;;3.47;1.60;;;10.00;86.20;;;;;;4999964;28;20057;-92
2024/02/12 11:30:30;;;;;;;3.15;1.67;;;10.10;82.70;;;;;;4939897;29;20456;-93
2024/02/12 11:32:56;;;;;;;3.53;1.63;;;10.00;87.00;;;;;;4942522;29;20024;-93
2024/02/12 11:35:22;;;;;;;4.25;1.27;;;10.20;85.00;;;;;;4951779;28;20065;-93
2024/02/12 11:38:00;;;;;;;4.75;1.48;;;10.40;82.30;;;;;;4987559;28;20033;-94
2024/02/12 11:40:26;;;;;;;4.32;1.27;;;10.20;83.50;;;;;;5001012;28;20053;-92
2024/02/12 11:42:52;;;;;;;6.70;2.33;;;10.30;83.40;;;;;;5008953;28;20027;-92
2024/02/12 11:45:20;;;;;;;3.60;0.98;;;10.40;83.00;;;;;;5007742;28;20026;-93
2024/02/12 11:47:46;;;;;;;3.92;2.08;;;10.20;86.20;;;;;;5001257;28;20027;-92
2024/02/12 11:50:24;;;;;;;2.67;1.63;;;10.40;82.30;;;;;;5010395;28;20022;-92
2024/02/12 11:52:54;;;;;;;5.20;1.75;;;10.10;80.90;;;;;;5006100;28;20031;-92
2024/02/12 11:55:20;;;;;;;4.15;1.50;;;10.10;80.70;;;;;;5007440;28;20034;-93
2024/02/12 11:57:46;;;;;;;3.28;1.52;;;10.00;83.60;;;;;;5013659;28;20030;-95
2024/02/12 12:00:16;;;;;;;3.40;1.52;;;10.20;82.70;;;;;;5002658;28;20014;-95
2024/02/12 12:02:55;;;;;;;2.67;1.60;;;10.20;80.40;;;;;;5017162;28;20033;-94
2024/02/12 12:05:25;;;;;;;3.50;1.35;;;10.10;83.10;;;;;;5014715;28;20086;-93
2024/02/12 12:07:52;;;;;;;3.28;1.52;;;10.30;82.00;;;;;;5015230;28;20033;-92
2024/02/12 12:10:34;;;;;;;7.20;1.40;;;10.50;81.60;;;;;;4998498;28;20034;-91
2024/02/12 12:13:00;;;;;;;4.65;1.88;;;10.40;81.00;;;;;;5009639;28;20034;-93
2024/02/12 12:15:28;;;;;;;5.90;1.45;;;10.40;78.80;;;;;;5017675;28;20049;-94
2024/02/12 12:18:00;;;;;;;;;;;10.50;81.20;;;;;;5028803;23;20114;-96
2024/02/12 12:20:44;;;;;;;5.93;1.38;;;10.70;80.10;;;;;;5015932;28;19909;-96
2024/02/12 12:23:25;;;;;;;2.33;1.13;;;10.50;77.90;;;;;;4994032;28;20062;-96
2024/02/12 12:28:26;;;;;;;2.78;2.17;;;10.20;77.90;;;;;;5440772;22;20084;-91
2024/02/12 12:30:54;;;;;;;6.03;1.42;;;10.20;78.30;;;;;;5021845;28;20022;-93
2024/02/12 12:33:21;;;;;;;4.72;1.33;;;10.30;78.80;;;;;;5022888;28;20025;-92
2024/02/12 12:35:47;;;;;;;5.68;1.63;;;10.30;78.90;;;;;;5023753;28;20030;-93
2024/02/12 12:38:14;;;;;;;3.80;1.40;;;10.30;78.40;;;;;;5008648;28;20030;-92
2024/02/12 12:40:42;;;;;;;2.10;1.67;;;10.30;78.60;;;;;;5021302;28;20049;-92
2024/02/12 12:43:08;;;;;;;3.08;1.63;;;10.40;79.10;;;;;;5003787;28;20097;-93
2024/02/12 12:45:34;;;;;;;4.18;2.38;;;10.70;76.80;;;;;;5029843;28;20022;-91
2024/02/12 12:48:02;;;;;;;7.45;1.60;;;10.80;78.40;;;;;;5004502;28;20034;-93
2024/02/12 12:50:28;;;;;;;3.67;1.58;;;10.90;74.80;;;;;;4999716;28;20131;-94
2024/02/12 12:52:57;;;;;;;3.47;1.58;;;10.80;73.70;;;;;;4994218;28;20030;-93
2024/02/12 12:55:24;;;;;;;3.13;0.93;;;10.70;74.50;;;;;;4992465;28;20137;-93
2024/02/12 12:57:50;;;;;;;3.78;1.55;;;10.70;73.90;;;;;;4977745;28;20049;-93
2024/02/12 13:00:21;;;;;;;3.53;1.50;;;10.70;76.10;;;;;;5009221;28;20041;-93
2024/02/12 13:02:52;;;;;;;3.78;1.55;;;10.70;76.10;;;;;;4984277;28;20084;-93
2024/02/12 13:05:20;;;;;;;2.67;1.08;;;10.60;76.60;;;;;;4996429;28;20030;-93
2024/02/12 13:07:46;;;;;;;;;;;10.50;75.00;;;;;;4973465;28;20092;-93
2024/02/12 13:10:13;;;;;;;3.50;1.65;;;10.60;77.10;;;;;;4991634;28;20253;-92
2024/02/12 13:12:39;;;;;;;2.50;1.30;;;10.60;75.00;;;;;;4985277;28;20588;-93
2024/02/12 13:15:09;;;;;;;3.25;1.27;;;10.40;73.50;;;;;;4994278;28;20022;-92
2024/02/12 13:17:36;;;;;;;3.42;1.15;;;10.30;76.90;;;;;;4995857;28;20125;-93